Time;durP1;ratioP1;P1;durP2;ratioP2;P2;SDS_P1;SDS_P2;PMS_P1;PMS_P2;Temp;Humidity;BMP_temperature;BMP_pressure;BME280_temperature;BME280_humidity;BME280_pressure;Samples;Min_cycle;Max_cycle;Signal;HPM_P1;HPM_P2
2023/02/21 02:15:51;;;;;;;47.97;21.48;;;;;;;9.32;100.00;101910.53;2615977;36;20178;-54
2023/02/21 02:18:44;;;;;;;49.03;20.35;;;;;;;9.30;100.00;101899.00;2615419;36;20045;-55
2023/02/21 02:21:39;;;;;;;55.55;24.42;;;;;;;9.37;100.00;101892.25;2615631;36;20069;-55
2023/02/21 02:24:29;;;;;;;49.30;21.98;;;;;;;9.32;100.00;101907.84;2614454;36;20034;-54
2023/02/21 02:27:22;;;;;;;51.45;22.90;;;;;;;9.35;100.00;101906.75;2613249;36;20057;-53
2023/02/21 02:30:15;;;;;;;47.70;22.23;;;;;;;9.28;100.00;101903.63;2614937;36;20030;-54
2023/02/21 02:33:08;;;;;;;57.53;23.00;;;;;;;9.34;100.00;101900.53;2615337;36;20142;-55
2023/02/21 02:35:45;;;;;;;52.40;22.42;;;;;;;9.34;100.00;101900.53;2615226;36;20420;-54
2023/02/21 02:38:23;;;;;;;50.65;23.52;;;;;;;9.26;100.00;101897.47;2613796;36;20047;-53
2023/02/21 02:40:59;;;;;;;50.85;22.83;;;;;;;9.24;100.00;101894.03;2614613;36;20038;-55
2023/02/21 02:43:32;;;;;;;54.03;22.77;;;;;;;9.38;100.00;101891.28;2614506;36;20038;-53
2023/02/21 02:46:08;;;;;;;53.03;24.52;;;;;;;9.29;100.00;101900.84;2614111;36;20061;-52
2023/02/21 02:48:40;;;;;;;52.63;23.40;;;;;;;9.29;100.00;101891.91;2614819;36;20034;-56
2023/02/21 02:51:14;;;;;;;58.28;23.60;;;;;;;9.30;100.00;101885.56;2614725;36;20584;-54
2023/02/21 02:53:43;;;;;;;45.97;22.13;;;;;;;9.24;100.00;101889.50;2615261;36;20027;-55
2023/02/21 02:56:16;;;;;;;53.00;21.90;;;;;;;9.23;100.00;101884.25;2614814;36;20084;-55
2023/02/21 02:58:49;;;;;;;53.08;22.80;;;;;;;9.31;100.00;101886.44;2615628;36;20038;-55
2023/02/21 03:01:31;;;;;;;47.05;21.58;;;;;;;9.34;100.00;101886.22;2614844;36;20089;-55
2023/02/21 03:04:13;;;;;;;52.42;24.08;;;;;;;9.50;100.00;101886.06;2614774;36;20039;-56
2023/02/21 03:06:52;;;;;;;56.38;23.05;;;;;;;9.41;100.00;101885.72;2613947;36;20042;-56
2023/02/21 03:09:28;;;;;;;52.85;21.63;;;;;;;9.36;100.00;101882.47;2614184;36;20038;-56
2023/02/21 03:12:02;;;;;;;51.85;23.35;;;;;;;9.38;100.00;101876.97;2613842;36;20046;-56
2023/02/21 03:14:38;;;;;;;44.63;22.15;;;;;;;9.37;100.00;101875.28;2614175;36;20042;-57
2023/02/21 03:17:10;;;;;;;48.85;22.05;;;;;;;9.47;100.00;101871.84;2614382;36;20034;-54
2023/02/21 03:19:41;;;;;;;51.65;21.70;;;;;;;9.43;100.00;101878.41;2613650;31;20137;-55
2023/02/21 03:22:16;;;;;;;51.53;22.50;;;;;;;9.32;100.00;101877.41;2613603;36;20038;-56
2023/02/21 03:24:48;;;;;;;51.95;21.88;;;;;;;9.36;100.00;101879.78;2614554;36;20038;-54
2023/02/21 03:27:20;;;;;;;50.50;22.92;;;;;;;9.36;100.00;101895.88;2614354;31;20516;-53
2023/02/21 03:29:48;;;;;;;43.75;19.85;;;;;;;9.40;100.00;101875.91;2615023;31;20041;-52
2023/02/21 03:34:46;;;;;;;55.13;22.97;;;;;;;9.34;100.00;101878.19;2613014;36;20038;-54
2023/02/21 03:37:30;;;;;;;48.08;20.92;;;;;;;9.32;100.00;101870.22;2612940;36;20558;-51
2023/02/21 03:39:59;;;;;;;44.50;20.77;;;;;;;9.24;100.00;101861.81;2614290;36;20825;-53
2023/02/21 03:42:27;;;;;;;55.55;23.30;;;;;;;9.18;100.00;101872.97;2614719;36;20037;-55
2023/02/21 03:44:55;;;;;;;49.22;22.02;;;;;;;9.15;100.00;101870.47;2613457;36;20038;-56
2023/02/21 03:47:24;;;;;;;52.72;22.52;;;;;;;9.21;100.00;101862.00;2615250;36;20042;-56
2023/02/21 03:49:52;;;;;;;56.60;23.03;;;;;;;9.30;100.00;101866.75;2613656;36;20554;-52
2023/02/21 03:52:23;;;;;;;53.35;23.40;;;;;;;9.29;100.00;101876.66;2614041;36;20128;-55
2023/02/21 03:54:51;;;;;;;55.90;23.33;;;;;;;9.34;100.00;101876.34;2615169;36;20035;-57
2023/02/21 03:57:20;;;;;;;55.70;22.83;;;;;;;9.35;100.00;101869.13;2614047;36;21372;-55
2023/02/21 03:59:48;;;;;;;53.08;21.70;;;;;;;9.32;100.00;101875.59;2614678;36;20035;-55
2023/02/21 04:02:17;;;;;;;52.23;22.77;;;;;;;9.26;100.00;101881.34;2615522;36;20440;-56
2023/02/21 04:04:47;;;;;;;;;;;;;;;9.34;100.00;101873.66;2614604;36;20050;-55
2023/02/21 04:07:15;;;;;;;55.50;24.15;;;;;;;9.39;100.00;101876.03;2615299;36;20385;-53
2023/02/21 04:09:47;;;;;;;49.83;23.55;;;;;;;9.43;100.00;101873.03;2613938;31;20034;-52
2023/02/21 04:12:15;;;;;;;53.15;23.13;;;;;;;9.52;100.00;101878.75;2614911;31;20042;-57
2023/02/21 04:14:44;;;;;;;44.78;22.27;;;;;;;9.41;100.00;101879.50;2614283;36;20463;-59
2023/02/21 04:17:12;;;;;;;48.88;23.77;;;;;;;9.35;100.00;101888.81;2613753;36;20041;-56
2023/02/21 04:19:40;;;;;;;58.67;24.75;;;;;;;9.31;100.00;101884.59;2614515;31;20536;-56
2023/02/21 04:22:08;;;;;;;57.35;24.55;;;;;;;9.38;100.00;101895.78;2615400;36;20049;-53
2023/02/21 04:24:37;;;;;;;51.67;24.20;;;;;;;9.43;100.00;101890.97;2615583;36;20042;-58
2023/02/21 04:27:08;;;;;;;54.22;24.38;;;;;;;9.22;100.00;101906.72;2613791;36;20062;-55
2023/02/21 04:29:36;;;;;;;48.33;24.05;;;;;;;9.31;100.00;101894.50;2615482;36;20038;-54
2023/02/21 04:32:05;;;;;;;54.90;23.83;;;;;;;9.37;100.00;101886.88;2615009;31;20613;-55
2023/02/21 04:34:33;;;;;;;54.22;24.33;;;;;;;9.43;100.00;101882.91;2615178;31;20479;-56
2023/02/21 04:37:01;;;;;;;64.03;24.20;;;;;;;9.44;100.00;101884.66;2614099;36;20038;-56
2023/02/21 04:39:30;;;;;;;49.50;22.52;;;;;;;9.47;100.00;101884.44;2614075;31;20034;-57
2023/02/21 04:41:58;;;;;;;55.10;23.90;;;;;;;9.37;100.00;101878.81;2614623;36;20042;-58
2023/02/21 04:44:33;;;;;;;61.80;24.43;;;;;;;9.47;100.00;101885.28;2615189;36;20062;-53
2023/02/21 04:47:01;;;;;;;50.40;23.00;;;;;;;9.39;100.00;101881.41;2614478;36;20041;-53
2023/02/21 04:49:29;;;;;;;51.22;23.88;;;;;;;9.48;100.00;101888.84;2614744;31;20034;-55
2023/02/21 04:51:58;;;;;;;63.45;25.38;;;;;;;9.38;100.00;101883.25;2613537;36;20042;-53
2023/02/21 04:54:26;;;;;;;60.08;23.77;;;;;;;9.56;100.00;101882.97;2614614;36;20038;-57
2023/02/21 04:56:54;;;;;;;59.77;24.97;;;;;;;9.61;100.00;101894.25;2613912;36;20045;-56
2023/02/21 04:59:23;;;;;;;51.58;22.98;;;;;;;9.63;100.00;101884.28;2614039;36;20038;-53
2023/02/21 05:01:54;;;;;;;58.05;23.33;;;;;;;9.48;100.00;101896.88;2614829;36;20419;-55
2023/02/21 05:04:22;;;;;;;58.50;24.00;;;;;;;9.49;100.00;101890.56;2614344;36;20050;-58
2023/02/21 05:06:50;;;;;;;55.27;24.47;;;;;;;9.44;100.00;101890.88;2614108;36;20062;-55
2023/02/21 05:09:18;;;;;;;47.60;22.90;;;;;;;9.49;100.00;101897.78;2613007;36;20038;-59
2023/02/21 05:11:47;;;;;;;52.70;23.00;;;;;;;9.50;100.00;101888.75;2613782;36;20038;-54
2023/02/21 05:14:17;;;;;;;49.65;22.85;;;;;;;9.43;100.00;101891.84;2614428;36;20035;-55
2023/02/21 05:16:45;;;;;;;60.25;25.40;;;;;;;9.45;100.00;101889.94;2614083;36;20034;-55
2023/02/21 05:19:26;;;;;;;55.47;25.35;;;;;;;9.52;100.00;101889.50;2613385;36;20046;-58
2023/02/21 05:21:56;;;;;;;53.80;24.25;;;;;;;9.39;100.00;101893.03;2613450;36;20566;-54
2023/02/21 05:24:24;;;;;;;52.78;25.27;;;;;;;9.47;100.00;101892.50;2613398;36;20400;-56
2023/02/21 05:26:53;;;;;;;50.80;23.98;;;;;;;9.39;100.00;101893.03;2613862;36;20038;-56
2023/02/21 05:29:21;;;;;;;55.00;24.00;;;;;;;9.47;100.00;101892.50;2613620;31;20035;-55
2023/02/21 05:31:50;;;;;;;47.70;23.15;;;;;;;9.47;100.00;101893.34;2613624;36;20038;-56
2023/02/21 05:34:21;;;;;;;55.45;24.48;;;;;;;9.43;100.00;101888.28;2612875;36;20041;-55
2023/02/21 05:36:49;;;;;;;60.63;24.65;;;;;;;9.54;100.00;101885.75;2613725;36;20026;-54
2023/02/21 05:39:17;;;;;;;63.35;25.13;;;;;;;9.44;100.00;101884.66;2615300;36;20049;-55
2023/02/21 05:41:50;;;;;;;66.93;27.87;;;;;;;9.40;100.00;101889.34;2613998;31;20035;-56
2023/02/21 05:44:19;;;;;;;57.83;25.85;;;;;;;9.49;100.00;101887.88;2614657;36;20039;-59
2023/02/21 05:46:48;;;;;;;;;;;;;;;9.52;100.00;101886.81;2614095;36;20161;-54
2023/02/21 05:49:16;;;;;;;58.78;25.95;;;;;;;9.50;100.00;101886.91;2614317;36;19951;-55
2023/02/21 05:51:47;;;;;;;56.30;24.15;;;;;;;9.57;100.00;101884.66;2614592;36;21753;-55
2023/02/21 05:54:18;;;;;;;66.22;27.45;;;;;;;9.56;100.00;101883.81;2615077;31;20427;-56
2023/02/21 05:56:48;;;;;;;71.75;28.42;;;;;;;9.47;100.00;101884.44;2615097;36;20042;-56
2023/02/21 05:59:19;;;;;;;60.08;26.08;;;;;;;9.52;100.00;101893.03;2613972;36;20776;-55
2023/02/21 06:01:47;;;;;;;56.67;25.52;;;;;;;9.58;100.00;101889.94;2614908;36;20026;-56
2023/02/21 06:04:16;;;;;;;68.93;27.85;;;;;;;9.46;100.00;101894.31;2615260;36;20443;-54
2023/02/21 06:06:47;;;;;;;63.20;26.30;;;;;;;9.45;100.00;101889.94;2614865;36;20034;-54
2023/02/21 06:09:16;;;;;;;61.13;25.60;;;;;;;9.51;100.00;101888.66;2614518;36;20582;-57
2023/02/21 06:11:44;;;;;;;75.40;28.75;;;;;;;9.51;100.00;101887.78;2614526;36;20582;-54
2023/02/21 06:14:16;;;;;;;67.55;27.75;;;;;;;9.66;100.00;101884.06;2614691;36;20038;-54
2023/02/21 06:16:45;;;;;;;72.45;28.52;;;;;;;9.57;100.00;101884.66;2614206;36;20042;-53
2023/02/21 06:19:15;;;;;;;67.83;26.63;;;;;;;9.48;100.00;101880.78;2613473;36;20543;-57
2023/02/21 06:21:44;;;;;;;67.13;28.23;;;;;;;9.44;100.00;101880.13;2614777;31;20419;-56
2023/02/21 06:24:15;;;;;;;72.30;27.90;;;;;;;9.40;100.00;101878.59;2613697;36;20467;-55
2023/02/21 06:26:43;;;;;;;72.30;29.95;;;;;;;9.41;100.00;101882.19;2613888;36;20035;-53
2023/02/21 06:29:13;;;;;;;71.60;28.35;;;;;;;9.35;100.00;101886.13;2609601;36;20509;-57
2023/02/21 06:31:41;;;;;;;72.95;29.77;;;;;;;9.45;100.00;101881.88;2609769;36;20053;-56
2023/02/21 06:34:09;;;;;;;67.90;29.27;;;;;;;9.42;100.00;101886.56;2611053;36;20081;-55
2023/02/21 06:36:38;;;;;;;69.43;28.23;;;;;;;9.44;100.00;101887.34;2609270;36;20034;-56
2023/02/21 06:39:06;;;;;;;73.78;28.30;;;;;;;9.59;100.00;101898.88;2611892;36;20563;-56
2023/02/21 06:41:37;;;;;;;66.67;28.83;;;;;;;9.43;100.00;101897.22;2611237;36;20067;-53
2023/02/21 06:44:06;;;;;;;62.42;28.08;;;;;;;9.49;100.00;101901.31;2610389;36;20050;-56
2023/02/21 06:46:36;;;;;;;76.97;28.15;;;;;;;9.39;100.00;101897.53;2610376;31;20056;-54
2023/02/21 06:49:05;;;;;;;63.72;28.08;;;;;;;9.37;100.00;101894.09;2609942;36;20042;-57
2023/02/21 06:51:36;;;;;;;73.05;30.15;;;;;;;9.41;100.00;101896.47;2614949;36;20042;-53
2023/02/21 06:54:06;;;;;;;71.20;28.38;;;;;;;9.39;100.00;101898.41;2615480;31;20038;-54
2023/02/21 06:56:37;;;;;;;73.25;29.10;;;;;;;9.42;100.00;101895.50;2615843;31;20038;-55
2023/02/21 06:59:07;;;;;;;67.65;28.75;;;;;;;9.49;100.00;101897.78;2615584;36;20031;-56
2023/02/21 07:01:35;;;;;;;72.32;28.50;;;;;;;9.54;100.00;101890.25;2615833;36;20034;-52
2023/02/21 07:04:03;;;;;;;71.72;28.90;;;;;;;9.46;100.00;101894.31;2615007;36;20548;-54
2023/02/21 07:06:32;;;;;;;70.50;28.88;;;;;;;9.52;100.00;101894.88;2611023;36;20436;-55
2023/02/21 07:09:01;;;;;;;66.03;28.98;;;;;;;9.41;100.00;101891.09;2611343;36;20031;-55
2023/02/21 07:11:31;;;;;;;69.32;27.05;;;;;;;9.45;100.00;101889.94;2612025;31;20037;-54
2023/02/21 07:14:02;;;;;;;67.30;27.08;;;;;;;9.50;100.00;101896.81;2610988;36;20045;-55
2023/02/21 07:16:31;;;;;;;74.30;30.27;;;;;;;9.55;100.00;101883.91;2610938;36;20030;-51
2023/02/21 07:18:59;;;;;;;66.72;27.08;;;;;;;9.60;100.00;101881.78;2611304;36;20045;-55
2023/02/21 07:21:28;;;;;;;74.27;28.23;;;;;;;9.62;100.00;101891.44;2611277;36;20145;-56
2023/02/21 07:23:57;;;;;;;76.00;28.98;;;;;;;9.55;100.00;101895.50;2610178;36;20047;-56
2023/02/21 07:26:25;;;;;;;73.72;30.23;;;;;;;9.53;100.00;101885.84;2611774;36;20053;-53
2023/02/21 07:28:53;;;;;;;67.57;28.57;;;;;;;9.55;100.00;101894.66;2610960;36;20049;-54
2023/02/21 07:31:24;;;;;;;72.30;28.88;;;;;;;9.50;100.00;101899.50;2610737;36;20038;-55
2023/02/21 07:33:52;;;;;;;68.55;28.98;;;;;;;9.58;100.00;101897.13;2612926;36;20042;-56
2023/02/21 07:36:22;;;;;;;71.47;29.05;;;;;;;9.73;100.00;101893.44;2615594;36;20035;-54
2023/02/21 07:38:50;;;;;;;80.22;29.50;;;;;;;9.54;100.00;101903.69;2615853;36;20065;-54
2023/02/21 07:41:20;;;;;;;72.65;28.02;;;;;;;9.58;100.00;101903.38;2615435;36;21246;-54
2023/02/21 07:43:49;;;;;;;68.53;28.38;;;;;;;9.68;100.00;101903.63;2615911;36;20039;-52
2023/02/21 07:46:18;;;;;;;;;;;;;;;9.75;100.00;101899.53;2613967;36;20045;-58
2023/02/21 07:48:49;;;;;;;73.40;30.10;;;;;;;9.62;100.00;101904.03;2612841;36;20074;-55
2023/02/21 07:51:17;;;;;;;78.93;29.70;;;;;;;9.85;100.00;101905.16;2612398;36;20034;-52
2023/02/21 07:53:46;;;;;;;67.25;29.10;;;;;;;9.90;100.00;101904.84;2611549;36;20042;-55
2023/02/21 07:56:15;;;;;;;74.63;28.20;;;;;;;9.90;100.00;101899.47;2611308;36;20039;-55
2023/02/21 07:58:43;;;;;;;73.28;28.80;;;;;;;9.79;100.00;101906.44;2611547;36;20042;-54
2023/02/21 08:01:11;;;;;;;74.72;29.95;;;;;;;9.82;100.00;101911.59;2614055;31;20401;-53
2023/02/21 08:03:40;;;;;;;78.55;30.75;;;;;;;9.69;100.00;101915.22;2614888;36;20030;-54
2023/02/21 08:06:12;;;;;;;79.53;31.33;;;;;;;9.52;100.00;101919.06;2611172;36;20179;-56
2023/02/21 08:08:40;;;;;;;72.07;29.58;;;;;;;9.53;100.00;101910.91;2612364;36;20042;-57
2023/02/21 08:11:08;;;;;;;85.68;30.58;;;;;;;9.52;100.00;101908.31;2615462;36;20045;-54
2023/02/21 08:13:37;;;;;;;90.30;31.93;;;;;;;9.49;100.00;101913.91;2614936;31;20054;-55
2023/02/21 08:16:05;;;;;;;83.82;30.08;;;;;;;9.49;100.00;101909.38;2612914;36;20038;-55
2023/02/21 08:18:34;;;;;;;78.85;29.58;;;;;;;9.52;100.00;101921.75;2612632;36;20034;-55
2023/02/21 08:21:03;;;;;;;84.68;29.95;;;;;;;9.47;100.00;101909.47;2610742;36;20038;-52
2023/02/21 08:23:34;;;;;;;79.70;30.00;;;;;;;9.57;100.00;101900.78;2615055;36;20535;-49
2023/02/21 08:26:02;;;;;;;77.28;30.42;;;;;;;9.70;100.00;101892.75;2615365;36;20038;-54
2023/02/21 08:28:30;;;;;;;83.28;29.77;;;;;;;9.81;100.00;101893.75;2613625;36;20034;-53
2023/02/21 08:30:59;;;;;;;80.20;29.65;;;;;;;9.68;100.00;101900.94;2613669;36;20046;-55
2023/02/21 08:33:27;;;;;;;83.38;32.00;;;;;;;9.54;100.00;101901.88;2614983;36;20035;-55
2023/02/21 08:35:55;;;;;;;90.45;31.13;;;;;;;9.45;100.00;101908.72;2614045;36;20448;-57
2023/02/21 08:38:24;;;;;;;83.75;31.10;;;;;;;9.77;100.00;101897.59;2613263;31;20046;-54
2023/02/21 08:40:56;;;;;;;83.95;30.30;;;;;;;9.67;100.00;101892.97;2613641;36;20041;-55
2023/02/21 08:43:25;;;;;;;80.05;30.85;;;;;;;9.55;100.00;101897.34;2613968;36;20030;-55
2023/02/21 08:45:53;;;;;;;81.90;31.60;;;;;;;9.58;100.00;101895.31;2614168;36;20162;-56
2023/02/21 08:48:21;;;;;;;82.63;32.28;;;;;;;9.70;100.00;101900.81;2614061;36;20448;-52
2023/02/21 08:50:51;;;;;;;80.47;31.20;;;;;;;9.50;100.00;101899.50;2615163;36;20046;-55
2023/02/21 08:53:19;;;;;;;84.05;30.75;;;;;;;9.58;100.00;101891.75;2614234;31;20034;-54
2023/02/21 08:55:47;;;;;;;87.70;32.10;;;;;;;9.63;100.00;101897.72;2614254;36;20497;-56
2023/02/21 08:58:18;;;;;;;95.20;32.25;;;;;;;9.68;100.00;101886.63;2615144;31;20326;-55
2023/02/21 09:00:47;;;;;;;86.30;31.30;;;;;;;9.80;100.00;101891.16;2613331;36;20291;-53
2023/02/21 09:03:15;;;;;;;82.00;31.15;;;;;;;9.68;100.00;101894.69;2614964;36;20044;-52
2023/02/21 09:05:43;;;;;;;93.03;33.70;;;;;;;9.65;100.00;101895.75;2614491;36;20045;-57
2023/02/21 09:08:12;;;;;;;80.50;30.85;;;;;;;9.71;100.00;101892.66;2612932;36;20041;-52
2023/02/21 09:10:46;;;;;;;88.65;32.72;;;;;;;9.74;100.00;101887.06;2615291;36;20030;-54
2023/02/21 09:13:14;;;;;;;87.63;32.33;;;;;;;9.88;100.00;101890.63;2613808;36;20401;-53
2023/02/21 09:15:45;;;;;;;90.45;32.38;;;;;;;9.79;100.00;101884.94;2613432;36;20049;-55
2023/02/21 09:18:13;;;;;;;87.82;32.10;;;;;;;9.87;100.00;101886.22;2613427;36;20043;-55
2023/02/21 09:20:52;;;;;;;82.10;31.17;;;;;;;10.06;100.00;101892.03;2613563;36;20038;-55
2023/02/21 09:23:21;;;;;;;90.00;32.92;;;;;;;10.22;100.00;101880.19;2613233;36;20034;-57
2023/02/21 09:25:50;;;;;;;89.32;32.38;;;;;;;10.02;100.00;101879.78;2614925;36;20038;-54
2023/02/21 09:28:19;;;;;;;79.50;29.40;;;;;;;10.00;100.00;101881.72;2612852;36;20443;-55
2023/02/21 09:30:51;;;;;;;78.25;30.48;;;;;;;9.84;100.00;101879.22;2612775;36;20475;-55
2023/02/21 09:33:20;;;;;;;83.65;31.77;;;;;;;9.89;100.00;101871.69;2614705;36;20534;-55
2023/02/21 09:35:49;;;;;;;82.82;31.17;;;;;;;9.90;100.00;101877.94;2614419;36;20034;-53
2023/02/21 09:38:18;;;;;;;88.60;32.75;;;;;;;9.94;100.00;101871.41;2613992;36;20034;-56
2023/02/21 09:40:51;;;;;;;91.70;32.55;;;;;;;9.89;100.00;101873.53;2614367;36;20037;-54
2023/02/21 09:43:33;;;;;;;100.40;34.30;;;;;;;9.86;100.00;101873.75;2613139;36;20045;-57
2023/02/21 09:46:08;;;;;;;90.53;32.75;;;;;;;10.03;100.00;101873.44;2612979;36;20031;-58
2023/02/21 09:48:37;;;;;;;92.93;33.88;;;;;;;9.99;100.00;101870.06;2612234;36;20474;-56
2023/02/21 09:51:08;;;;;;;91.03;32.22;;;;;;;10.00;100.00;101869.13;2614395;36;20455;-56
2023/02/21 09:53:39;;;;;;;88.80;32.67;;;;;;;9.90;100.00;101869.88;2611520;36;20042;-53
2023/02/21 09:56:13;;;;;;;109.68;33.13;;;;;;;9.92;100.00;101867.94;2611678;36;20142;-55
2023/02/21 09:58:44;;;;;;;91.35;33.60;;;;;;;9.87;100.00;101873.63;2612427;36;20043;-51
2023/02/21 10:01:27;;;;;;;98.63;33.38;;;;;;;9.92;100.00;101870.63;2614423;36;20034;-54
2023/02/21 10:04:07;;;;;;;86.63;32.28;;;;;;;10.04;100.00;101872.47;2615233;36;20065;-55
2023/02/21 10:06:45;;;;;;;93.40;30.83;;;;;;;10.28;100.00;101874.41;2615386;36;20042;-54
2023/02/21 10:09:25;;;;;;;85.68;34.15;;;;;;;10.00;100.00;101871.81;2615041;36;20034;-58
2023/02/21 10:12:11;;;;;;;96.53;33.35;;;;;;;10.23;100.00;101874.72;2616035;36;20073;-55
2023/02/21 10:14:49;;;;;;;84.28;31.88;;;;;;;10.13;100.00;101873.66;2615202;36;20042;-56
2023/02/21 10:17:25;;;;;;;86.40;31.42;;;;;;;10.08;100.00;101865.88;2615821;36;20038;-55
2023/02/21 10:19:56;;;;;;;83.00;31.50;;;;;;;10.22;100.00;101872.13;2615856;36;20038;-54
2023/02/21 10:22:29;;;;;;;76.40;29.42;;;;;;;10.30;100.00;101872.44;2616027;31;20038;-49
2023/02/21 10:24:58;;;;;;;84.78;31.38;;;;;;;10.15;100.00;101867.19;2616750;36;20042;-53
2023/02/21 10:27:28;;;;;;;85.17;30.37;;;;;;;10.32;100.00;101873.19;2616616;36;20047;-53
2023/02/21 10:30:09;;;;;;;82.40;30.15;;;;;;;10.39;100.00;101871.81;2617176;36;20300;-55
2023/02/21 10:32:40;;;;;;;76.07;31.65;;;;;;;10.51;100.00;101870.94;2616537;36;20053;-55
2023/02/21 10:35:09;;;;;;;79.00;30.48;;;;;;;10.73;100.00;101877.44;2616522;36;20041;-55
2023/02/21 10:37:42;;;;;;;75.20;28.63;;;;;;;10.47;100.00;101874.81;2617339;36;20518;-56
2023/02/21 10:40:26;;;;;;;82.35;30.15;;;;;;;10.48;100.00;101868.47;2616367;36;20639;-54
2023/02/21 10:42:58;;;;;;;79.55;29.95;;;;;;;10.59;100.00;101875.75;2616587;36;20154;-55
2023/02/21 10:45:35;;;;;;;73.78;29.08;;;;;;;10.57;100.00;101871.47;2616676;36;20035;-55
2023/02/21 10:48:08;;;;;;;78.43;30.95;;;;;;;10.50;100.00;101881.81;2616406;36;20031;-54
2023/02/21 10:50:46;;;;;;;80.35;28.48;;;;;;;10.63;100.00;101879.09;2616588;36;20535;-52
2023/02/21 10:53:30;;;;;;;86.00;29.55;;;;;;;10.71;100.00;101882.09;2617175;31;20535;-51
2023/02/21 10:56:22;;;;;;;74.53;28.27;;;;;;;10.80;100.00;101880.56;2616548;36;20045;-55
2023/02/21 10:58:53;;;;;;;63.00;25.83;;;;;;;10.72;100.00;101886.50;2616510;36;20029;-55
2023/02/21 11:01:24;;;;;;;68.85;28.00;;;;;;;10.80;100.00;101876.03;2616581;36;20026;-53
2023/02/21 11:03:58;;;;;;;72.55;28.77;;;;;;;10.63;100.00;101885.34;2615865;36;20065;-54
2023/02/21 11:06:33;;;;;;;74.03;28.17;;;;;;;10.59;100.00;101883.00;2616357;36;20450;-54
2023/02/21 11:09:02;;;;;;;63.67;27.15;;;;;;;10.54;100.00;101895.91;2616564;36;20026;-54
2023/02/21 11:11:36;;;;;;;72.15;28.42;;;;;;;10.67;100.00;101891.34;2616480;36;20034;-53
2023/02/21 11:14:26;;;;;;;67.40;29.10;;;;;;;10.55;100.00;101892.25;2616028;36;20459;-55
2023/02/21 11:17:19;;;;;;;72.75;27.75;;;;;;;10.52;100.00;101899.56;2616804;31;20057;-56
2023/02/21 11:19:55;;;;;;;64.47;27.33;;;;;;;10.32;100.00;101887.53;2616391;36;20038;-56
2023/02/21 11:22:27;;;;;;;80.95;29.30;;;;;;;10.40;100.00;101889.69;2615927;31;20042;-55
2023/02/21 11:25:07;;;;;;;72.40;27.08;;;;;;;10.30;100.00;101888.59;2616923;36;20030;-56
2023/02/21 11:27:38;;;;;;;70.93;27.50;;;;;;;10.22;100.00;101881.06;2616579;36;20038;-54
2023/02/21 11:30:17;;;;;;;77.22;27.98;;;;;;;10.24;100.00;101886.34;2616643;31;20038;-53
2023/02/21 11:32:52;;;;;;;76.70;27.10;;;;;;;10.33;100.00;101878.50;2615925;36;20497;-53
2023/02/21 11:35:28;;;;;;;66.18;26.80;;;;;;;10.25;100.00;101871.94;2616249;31;20022;-57
2023/02/21 11:38:00;;;;;;;75.43;29.23;;;;;;;10.33;100.00;101874.91;2616956;36;20022;-54
2023/02/21 11:40:36;;;;;;;79.07;28.75;;;;;;;10.34;100.00;101879.38;2616868;36;20550;-55
2023/02/21 11:43:22;;;;;;;73.68;28.42;;;;;;;10.28;100.00;101869.88;2616574;31;20039;-55
2023/02/21 11:46:03;;;;;;;80.43;28.00;;;;;;;10.21;100.00;101867.72;2616422;36;20030;-55
2023/02/21 11:48:36;;;;;;;74.72;26.95;;;;;;;10.14;100.00;101873.56;2616514;36;20023;-54
2023/02/21 11:51:19;;;;;;;77.43;27.00;;;;;;;10.27;100.00;101867.28;2616765;36;20042;-54
2023/02/21 11:53:48;;;;;;;74.47;27.48;;;;;;;10.29;100.00;101870.72;2616371;36;20046;-54
2023/02/21 11:56:27;;;;;;;69.00;27.17;;;;;;;10.22;100.00;101869.44;2616880;36;20451;-55
2023/02/21 11:59:03;;;;;;;79.47;28.35;;;;;;;10.32;100.00;101857.91;2616240;36;20327;-56
2023/02/21 12:01:41;;;;;;;78.35;28.08;;;;;;;10.32;100.00;101855.22;2616498;36;20065;-58
2023/02/21 12:04:21;;;;;;;81.43;29.45;;;;;;;10.31;100.00;101861.56;2616011;36;20038;-55
2023/02/21 12:07:00;;;;;;;83.50;29.55;;;;;;;10.15;100.00;101860.94;2616405;36;20049;-53
2023/02/21 12:09:45;;;;;;;85.63;28.03;;;;;;;10.33;100.00;101861.47;2617248;36;20369;-56
2023/02/21 12:12:29;;;;;;;85.70;28.00;;;;;;;10.26;100.00;101854.78;2615938;36;20362;-56
2023/02/21 12:15:12;;;;;;;76.78;26.55;;;;;;;10.24;100.00;101852.22;2616478;36;20057;-58
2023/02/21 12:17:59;;;;;;;80.38;28.92;;;;;;;10.21;100.00;101856.97;2616003;36;20046;-56
2023/02/21 12:20:37;;;;;;;84.80;28.83;;;;;;;10.27;100.00;101853.84;2615877;36;20158;-55
2023/02/21 12:23:19;;;;;;;70.43;27.83;;;;;;;10.33;100.00;101856.06;2616293;31;20054;-54
2023/02/21 12:26:01;;;;;;;84.40;28.73;;;;;;;10.32;100.00;101846.28;2616171;36;20038;-56
2023/02/21 12:28:42;;;;;;;83.78;28.85;;;;;;;10.44;100.00;101849.97;2616891;31;20045;-53
2023/02/21 12:31:25;;;;;;;78.25;28.42;;;;;;;10.62;100.00;101845.06;2616278;36;20635;-52
2023/02/21 12:34:04;;;;;;;76.20;27.60;;;;;;;10.43;100.00;101846.41;2616552;36;20428;-56
2023/02/21 12:36:46;;;;;;;72.95;26.73;;;;;;;10.44;100.00;101849.97;2616243;36;20043;-56
2023/02/21 12:39:28;;;;;;;74.45;26.45;;;;;;;10.51;100.00;101837.75;2616493;36;20819;-55
2023/02/21 12:42:13;;;;;;;73.80;26.40;;;;;;;10.67;100.00;101833.00;2616392;36;20033;-54
2023/02/21 12:44:53;;;;;;;84.40;28.33;;;;;;;10.66;100.00;101836.66;2615855;36;20061;-54
2023/02/21 12:47:28;;;;;;;79.88;28.67;;;;;;;10.64;100.00;101835.03;2616086;36;20045;-55
2023/02/21 12:50:03;;;;;;;75.68;29.23;;;;;;;10.51;100.00;101833.25;2616099;36;20057;-55
2023/02/21 12:52:35;;;;;;;79.18;27.85;;;;;;;10.52;100.00;101829.56;2616660;36;20039;-55
2023/02/21 12:55:15;;;;;;;78.93;28.10;;;;;;;10.40;100.00;101830.47;2616104;31;20038;-52
2023/02/21 12:57:51;;;;;;;80.53;27.65;;;;;;;10.47;100.00;101826.38;2616040;36;20041;-53
2023/02/21 13:00:24;;;;;;;77.30;27.48;;;;;;;10.34;100.00;101822.84;2615962;36;20041;-55
2023/02/21 13:03:10;;;;;;;90.40;28.63;;;;;;;10.47;100.00;101821.00;2616564;36;20424;-55
2023/02/21 13:05:41;;;;;;;85.85;31.00;;;;;;;10.40;100.00;101818.88;2616078;36;20435;-56
2023/02/21 13:08:19;;;;;;;76.20;27.30;;;;;;;10.50;100.00;101817.22;2615650;36;20034;-56
2023/02/21 13:10:57;;;;;;;76.88;28.15;;;;;;;10.49;100.00;101816.34;2615830;36;20154;-56
2023/02/21 13:13:31;;;;;;;75.30;28.02;;;;;;;10.59;100.00;101813.84;2616127;36;20046;-54
2023/02/21 13:16:00;;;;;;;87.22;27.17;;;;;;;10.61;100.00;101819.97;2616266;36;20042;-55
2023/02/21 13:18:32;;;;;;;81.68;28.50;;;;;;;10.52;100.00;101824.19;2615954;36;20038;-55
2023/02/21 13:21:10;;;;;;;83.88;28.67;;;;;;;10.47;100.00;101815.59;2615742;36;20026;-55
2023/02/21 13:24:09;;;;;;;84.97;28.42;;;;;;;10.40;100.00;101811.63;2615904;36;20035;-54
2023/02/21 13:27:09;;;;;;;86.70;28.38;;;;;;;10.41;100.00;101816.06;2615744;36;20039;-59
2023/02/21 13:29:40;;;;;;;83.15;26.55;;;;;;;10.45;100.00;101805.91;2616156;36;20594;-54
2023/02/21 13:32:11;;;;;;;89.40;26.52;;;;;;;10.43;100.00;101806.03;2615689;36;20026;-55
2023/02/21 13:34:45;;;;;;;77.38;25.35;;;;;;;10.29;100.00;101795.38;2616213;54;20045;-55
2023/02/21 13:37:19;;;;;;;93.97;26.85;;;;;;;10.17;100.00;101798.00;2616245;36;20034;-53
2023/02/21 13:40:00;;;;;;;84.35;26.90;;;;;;;10.24;100.00;101794.88;2615987;36;20034;-54
2023/02/21 13:42:32;;;;;;;80.40;25.55;;;;;;;10.39;100.00;101792.91;2615696;31;20026;-59
2023/02/21 13:45:15;;;;;;;80.45;26.73;;;;;;;10.39;100.00;101787.53;2615714;36;20050;-59
2023/02/21 13:48:22;;;;;;;77.38;23.58;;;;;;;10.28;100.00;101782.91;2616156;36;20030;-54
2023/02/21 13:50:53;;;;;;;80.05;26.00;;;;;;;10.42;100.00;101782.78;2615366;36;20083;-56